createdAt,value
2022-12-08T00:01:19.806Z,1.60
2022-12-08T00:03:47.558Z,1.66
2022-12-08T00:06:42.623Z,1.80
2022-12-08T00:09:24.287Z,1.82
2022-12-08T00:12:02.318Z,1.84
2022-12-08T00:14:35.355Z,1.99
2022-12-08T00:17:03.463Z,2.09
2022-12-08T00:19:31.452Z,1.92
2022-12-08T00:21:59.205Z,1.81
2022-12-08T00:24:31.422Z,1.72
2022-12-08T00:26:58.846Z,1.56
2022-12-08T00:29:25.936Z,1.53
2022-12-08T00:31:53.194Z,1.45
2022-12-08T00:34:21.103Z,1.35
2022-12-08T00:36:48.241Z,1.38
2022-12-08T00:39:16.450Z,1.39
2022-12-08T00:42:03.218Z,1.41
2022-12-08T00:44:30.336Z,1.41
2022-12-08T00:46:57.741Z,1.21
2022-12-08T00:49:24.966Z,1.23
2022-12-08T00:51:52.378Z,1.35
2022-12-08T00:54:20.909Z,1.34
2022-12-08T00:56:48.081Z,1.39
2022-12-08T00:59:15.316Z,1.40
2022-12-08T01:01:44.501Z,1.40
2022-12-08T01:04:15.576Z,1.42
2022-12-08T01:06:44.128Z,1.64
2022-12-08T01:09:13.024Z,1.79
2022-12-08T01:11:40.123Z,1.77
2022-12-08T01:14:07.579Z,1.56
2022-12-08T01:16:36.048Z,1.26
2022-12-08T01:19:03.927Z,1.14
2022-12-08T01:21:31.270Z,1.07
2022-12-08T01:24:00.315Z,1.02
2022-12-08T01:26:27.554Z,1.09
2022-12-08T01:28:54.992Z,1.03
2022-12-08T01:31:22.788Z,0.91
2022-12-08T01:33:50.455Z,0.89
2022-12-08T01:36:26.167Z,0.84
2022-12-08T01:38:54.134Z,0.75
2022-12-08T01:41:24.006Z,0.73
2022-12-08T01:43:56.787Z,0.73
2022-12-08T01:46:25.020Z,0.67
2022-12-08T01:48:55.869Z,0.50
2022-12-08T01:51:23.159Z,0.42
2022-12-08T01:53:50.777Z,0.37
2022-12-08T01:56:28.509Z,0.29
2022-12-08T01:58:55.997Z,0.42
2022-12-08T02:01:23.863Z,0.35
2022-12-08T02:04:02.477Z,0.40
2022-12-08T02:06:33.359Z,0.36
2022-12-08T02:09:01.577Z,0.13
2022-12-08T02:11:29.526Z,0.16
2022-12-08T02:13:57.885Z,0.15
2022-12-08T02:16:31.337Z,0.08
2022-12-08T02:19:30.313Z,0.09
2022-12-08T02:21:57.059Z,0.18
2022-12-08T02:24:41.343Z,0.19
2022-12-08T02:27:18.525Z,0.21
2022-12-08T02:30:08.307Z,0.13
2022-12-08T02:33:00.417Z,0.08
2022-12-08T02:35:46.436Z,0.16
2022-12-08T02:38:35.117Z,0.12
2022-12-08T02:41:08.611Z,0.18
2022-12-08T02:43:41.994Z,0.28
2022-12-08T02:46:12.132Z,0.41
2022-12-08T02:48:39.550Z,0.43
2022-12-08T02:51:06.602Z,0.52
2022-12-08T02:53:34.862Z,0.59
2022-12-08T02:56:25.428Z,0.61
2022-12-08T02:59:31.156Z,0.70
2022-12-08T03:02:04.505Z,0.68
2022-12-08T03:04:48.788Z,0.73
2022-12-08T03:07:22.422Z,0.91
2022-12-08T03:10:00.243Z,1.00
2022-12-08T03:12:48.839Z,0.92
2022-12-08T03:15:19.113Z,1.06
2022-12-08T03:17:50.192Z,1.29
2022-12-08T03:20:21.171Z,1.26
2022-12-08T03:22:49.793Z,1.21
2022-12-08T03:25:21.575Z,1.22
2022-12-08T03:27:49.306Z,1.17
2022-12-08T03:30:16.570Z,1.15
2022-12-08T03:32:49.409Z,1.15
2022-12-08T03:35:23.020Z,1.19
2022-12-08T03:37:50.467Z,1.25
2022-12-08T03:40:19.789Z,1.27
2022-12-08T03:42:46.906Z,1.37
2022-12-08T03:45:13.973Z,1.47
2022-12-08T03:47:41.302Z,1.54
2022-12-08T03:50:08.689Z,1.51
2022-12-08T03:52:35.761Z,1.49
2022-12-08T03:55:03.349Z,1.64
2022-12-08T03:57:30.421Z,1.93
2022-12-08T03:59:57.553Z,1.94
2022-12-08T04:02:25.026Z,1.88
2022-12-08T04:04:52.433Z,1.85
2022-12-08T04:07:19.510Z,2.02
2022-12-08T04:09:46.572Z,2.05
2022-12-08T04:12:13.930Z,1.93
2022-12-08T04:14:41.020Z,1.87
2022-12-08T04:17:08.066Z,1.93
2022-12-08T04:19:35.453Z,1.85
2022-12-08T04:22:02.563Z,1.83
2022-12-08T04:24:29.601Z,1.86
2022-12-08T04:26:56.990Z,1.89
2022-12-08T04:29:24.065Z,1.97
2022-12-08T04:31:51.181Z,1.90
2022-12-08T04:34:18.589Z,1.87
2022-12-08T04:36:45.647Z,1.82
2022-12-08T04:39:12.803Z,1.85
2022-12-08T04:41:40.170Z,1.90
2022-12-08T04:44:07.244Z,1.92
2022-12-08T04:46:35.189Z,1.81
2022-12-08T04:49:05.226Z,1.80
2022-12-08T04:51:32.283Z,1.82
2022-12-08T04:53:59.340Z,1.88
2022-12-08T04:56:26.691Z,1.81
2022-12-08T04:58:53.750Z,1.87
2022-12-08T05:01:20.926Z,1.89
2022-12-08T05:03:48.374Z,1.89
2022-12-08T05:06:15.512Z,1.99
2022-12-08T05:08:43.416Z,2.04
2022-12-08T05:11:11.782Z,3.19
2022-12-08T05:13:38.928Z,4.99
2022-12-08T05:16:11.741Z,4.09
2022-12-08T05:18:40.421Z,3.50
2022-12-08T05:21:08.231Z,3.15
2022-12-08T05:23:35.459Z,3.10
2022-12-08T05:26:02.825Z,2.88
2022-12-08T05:28:41.300Z,2.64
2022-12-08T05:31:10.176Z,2.70
2022-12-08T05:33:37.311Z,2.61
2022-12-08T05:36:04.528Z,2.49
2022-12-08T05:38:31.858Z,2.34
2022-12-08T05:40:58.938Z,2.35
2022-12-08T05:43:27.054Z,2.26
2022-12-08T05:45:54.637Z,2.23
2022-12-08T05:48:21.834Z,2.27
2022-12-08T05:50:51.365Z,2.25
2022-12-08T05:53:20.129Z,2.17
2022-12-08T05:55:47.472Z,2.16
2022-12-08T05:58:17.450Z,2.28
2022-12-08T06:00:46.604Z,2.36
2022-12-08T06:03:15.303Z,2.35
2022-12-08T06:05:43.624Z,2.29
2022-12-08T06:08:10.879Z,2.29
2022-12-08T06:10:39.900Z,2.38
2022-12-08T06:13:07.029Z,2.34
2022-12-08T06:15:35.344Z,2.33
2022-12-08T06:18:02.734Z,2.47
2022-12-08T06:20:29.814Z,2.39
2022-12-08T06:22:57.334Z,2.28
2022-12-08T06:25:25.124Z,2.36
2022-12-08T06:27:52.462Z,2.44
2022-12-08T06:30:19.538Z,2.40
2022-12-08T06:32:47.120Z,2.29
2022-12-08T06:35:14.185Z,2.27
2022-12-08T06:37:41.252Z,2.42
2022-12-08T06:40:09.042Z,2.68
2022-12-08T06:42:45.125Z,2.71
2022-12-08T06:45:17.101Z,2.80
2022-12-08T06:47:44.231Z,2.90
2022-12-08T06:50:12.798Z,2.84
2022-12-08T06:52:51.781Z,2.82
2022-12-08T06:55:57.387Z,2.82
2022-12-08T06:58:13.594Z,2.87
2022-12-08T07:00:41.948Z,3.05
2022-12-08T07:03:10.331Z,3.32
2022-12-08T07:05:38.160Z,3.33
2022-12-08T07:08:06.961Z,3.27
2022-12-08T07:10:34.647Z,3.36
2022-12-08T07:13:02.418Z,3.34
2022-12-08T07:15:29.494Z,3.42
2022-12-08T07:18:00.069Z,3.63
2022-12-08T07:20:29.254Z,3.57
2022-12-08T07:22:56.410Z,3.53
2022-12-08T07:25:23.805Z,3.48
2022-12-08T07:27:52.665Z,3.39
2022-12-08T07:30:19.872Z,3.39
2022-12-08T07:32:46.929Z,3.47
2022-12-08T07:35:14.320Z,3.41
2022-12-08T07:37:41.395Z,3.55
2022-12-08T07:40:09.798Z,3.63
2022-12-08T07:42:37.159Z,3.79
2022-12-08T07:45:04.540Z,4.00
2022-12-08T07:47:31.664Z,4.16
2022-12-08T07:49:58.992Z,4.22
2022-12-08T07:52:26.054Z,4.29
2022-12-08T07:54:53.158Z,4.53
2022-12-08T07:57:20.549Z,4.57
2022-12-08T07:59:47.625Z,4.72
2022-12-08T08:02:24.818Z,4.64
2022-12-08T08:04:53.425Z,4.96
2022-12-08T08:07:20.706Z,4.97
2022-12-08T08:09:47.752Z,4.94
2022-12-08T08:12:30.679Z,5.00
2022-12-08T08:14:59.754Z,5.22
2022-12-08T08:17:28.016Z,5.48
2022-12-08T08:19:55.256Z,5.49
2022-12-08T08:22:22.338Z,5.76
2022-12-08T08:24:49.775Z,5.51
2022-12-08T08:27:16.995Z,5.41
2022-12-08T08:29:44.268Z,5.52
2022-12-08T08:32:11.649Z,5.64
2022-12-08T08:34:38.848Z,5.53
2022-12-08T08:37:05.981Z,5.60
2022-12-08T08:39:33.377Z,6.01
2022-12-08T08:42:00.470Z,6.24
2022-12-08T08:44:27.782Z,6.43
2022-12-08T08:46:55.261Z,5.98
2022-12-08T08:49:22.457Z,5.51
2022-12-08T08:51:49.658Z,5.57
2022-12-08T08:54:17.030Z,5.77
2022-12-08T08:56:44.143Z,6.04
2022-12-08T08:59:11.378Z,6.00
2022-12-08T09:01:38.830Z,6.18
2022-12-08T09:04:06.220Z,6.10
2022-12-08T09:06:33.389Z,5.90
2022-12-08T09:09:00.821Z,5.71
2022-12-08T09:11:27.925Z,6.05
2022-12-08T09:13:55.253Z,5.73
2022-12-08T09:16:23.119Z,5.32
2022-12-08T09:18:50.900Z,5.29
2022-12-08T09:21:23.726Z,5.41
2022-12-08T09:23:52.994Z,5.79
2022-12-08T09:26:22.499Z,5.71
2022-12-08T09:28:53.944Z,5.35
2022-12-08T09:31:22.512Z,5.63
2022-12-08T09:33:53.195Z,5.76
2022-12-08T09:36:20.520Z,6.06
2022-12-08T09:38:54.690Z,5.79
2022-12-08T09:41:41.812Z,5.70
2022-12-08T09:44:50.320Z,5.93
2022-12-08T09:47:20.537Z,5.88
2022-12-08T09:50:00.533Z,5.99
2022-12-08T09:52:34.842Z,6.32
2022-12-08T09:55:06.568Z,6.46
2022-12-08T09:57:33.778Z,6.63
2022-12-08T10:00:05.524Z,6.54
2022-12-08T10:02:33.655Z,6.53
2022-12-08T10:05:00.910Z,6.48
2022-12-08T10:08:03.337Z,6.59
2022-12-08T10:10:43.102Z,6.82
2022-12-08T10:13:46.584Z,6.98
2022-12-08T10:16:30.067Z,6.77
2022-12-08T10:19:11.452Z,6.73
2022-12-08T10:21:40.740Z,6.86
2022-12-08T10:24:39.469Z,7.12
2022-12-08T10:27:11.562Z,7.01
2022-12-08T10:29:40.346Z,7.21
2022-12-08T10:32:19.338Z,7.33
2022-12-08T10:35:22.386Z,7.28
2022-12-08T10:38:01.564Z,7.27
2022-12-08T10:40:36.898Z,7.17
2022-12-08T10:43:14.942Z,6.95
2022-12-08T10:45:45.032Z,7.15
2022-12-08T10:48:21.858Z,7.27
2022-12-08T10:50:56.446Z,7.57
2022-12-08T10:53:29.644Z,7.75
2022-12-08T10:56:02.909Z,7.76
2022-12-08T10:58:46.100Z,7.69
2022-12-08T11:01:17.839Z,7.84
2022-12-08T11:03:46.576Z,7.88
2022-12-08T11:06:37.243Z,8.20
2022-12-08T11:09:24.769Z,8.03
2022-12-08T11:11:53.871Z,7.78
2022-12-08T11:14:34.857Z,7.59
2022-12-08T11:17:08.093Z,7.67
2022-12-08T11:19:39.836Z,7.98
2022-12-08T11:22:24.293Z,8.11
2022-12-08T11:25:08.389Z,8.25
2022-12-08T11:27:36.844Z,8.02
2022-12-08T11:30:15.008Z,8.09
2022-12-08T11:32:44.843Z,8.08
2022-12-08T11:35:26.815Z,8.16
2022-12-08T11:38:03.334Z,8.21
2022-12-08T11:40:44.192Z,8.17
2022-12-08T11:43:46.189Z,7.90
2022-12-08T11:46:18.807Z,7.73
2022-12-08T11:49:06.275Z,7.67
2022-12-08T11:51:42.909Z,7.76
2022-12-08T11:54:22.169Z,8.12
2022-12-08T11:56:52.725Z,7.86
2022-12-08T11:59:41.801Z,6.64
2022-12-08T12:02:15.315Z,7.02
2022-12-08T12:05:10.759Z,7.27
2022-12-08T12:07:44.562Z,7.38
2022-12-08T12:10:18.027Z,7.53
2022-12-08T12:13:16.017Z,7.56
2022-12-08T12:16:17.096Z,7.73
2022-12-08T12:18:52.035Z,7.46
2022-12-08T12:21:22.650Z,7.42
2022-12-08T12:23:52.782Z,7.51
2022-12-08T12:26:22.716Z,7.46
2022-12-08T12:28:52.657Z,7.01
2022-12-08T12:31:31.837Z,7.03
2022-12-08T12:34:16.845Z,7.12
2022-12-08T12:36:56.803Z,7.23
2022-12-08T12:39:32.097Z,7.15
2022-12-08T12:42:03.951Z,7.31
2022-12-08T12:44:33.963Z,7.43
2022-12-08T12:47:03.150Z,7.39
2022-12-08T12:49:39.460Z,7.37
2022-12-08T12:52:15.759Z,7.29
2022-12-08T12:54:43.698Z,7.41
2022-12-08T12:57:10.959Z,7.45
2022-12-08T12:59:47.823Z,7.35
2022-12-08T13:02:32.933Z,7.09
2022-12-08T13:05:02.754Z,7.05
2022-12-08T13:07:33.478Z,7.08
2022-12-08T13:10:09.675Z,7.19
2022-12-08T13:12:37.074Z,7.27
2022-12-08T13:15:06.439Z,7.31
2022-12-08T13:17:36.487Z,7.27
2022-12-08T13:20:06.937Z,7.16
2022-12-08T13:22:50.134Z,7.33
2022-12-08T13:25:46.444Z,7.24
2022-12-08T13:28:16.187Z,7.04
2022-12-08T13:30:50.681Z,7.08
2022-12-08T13:33:39.692Z,6.99
2022-12-08T13:36:23.652Z,7.20
2022-12-08T13:38:55.284Z,7.16
2022-12-08T13:41:29.959Z,7.30
2022-12-08T13:47:32.402Z,7.24
2022-12-08T13:59:07.369Z,7.13
2022-12-08T14:01:44.947Z,7.15
2022-12-08T14:04:42.589Z,7.21
2022-12-08T14:07:11.371Z,7.32
2022-12-08T14:09:39.753Z,7.33
2022-12-08T14:12:13.188Z,7.44
2022-12-08T14:17:29.525Z,7.68
2022-12-08T14:20:06.853Z,7.66
2022-12-08T14:22:38.890Z,7.41
2022-12-08T14:25:10.195Z,7.52
2022-12-08T14:27:37.939Z,7.53
2022-12-08T14:30:14.304Z,8.01
2022-12-08T14:32:48.537Z,7.99
2022-12-08T14:35:20.739Z,7.71
2022-12-08T14:37:49.380Z,7.51
2022-12-08T14:40:37.537Z,7.49
2022-12-08T14:43:07.732Z,7.23
2022-12-08T14:45:35.094Z,7.13
2022-12-08T14:48:27.613Z,7.00
2022-12-08T14:51:05.991Z,6.98
2022-12-08T14:53:39.745Z,7.05
2022-12-08T14:56:09.601Z,7.10
2022-12-08T14:58:36.733Z,7.13
2022-12-08T15:01:06.554Z,7.07
2022-12-08T15:03:34.377Z,6.87
2022-12-08T15:06:05.883Z,6.98
2022-12-08T15:08:33.437Z,6.90
2022-12-08T15:11:21.708Z,6.96
2022-12-08T15:13:51.239Z,6.88
2022-12-08T15:16:26.231Z,7.01
2022-12-08T15:19:16.957Z,7.26
2022-12-08T15:21:45.423Z,7.24
2022-12-08T15:24:13.491Z,7.15
2022-12-08T15:26:50.750Z,6.98
2022-12-08T15:29:27.402Z,7.12
2022-12-08T15:31:57.361Z,6.91
2022-12-08T15:34:25.106Z,6.68
2022-12-08T15:36:53.903Z,6.82
2022-12-08T15:39:39.305Z,6.81
2022-12-08T15:42:11.599Z,6.89
2022-12-08T15:44:39.122Z,6.58
2022-12-08T15:47:16.445Z,6.64
2022-12-08T15:49:44.153Z,6.81
2022-12-08T15:52:17.023Z,6.46
2022-12-08T15:54:44.106Z,6.44
2022-12-08T15:57:30.022Z,6.53
2022-12-08T16:00:19.046Z,6.56
2022-12-08T16:05:50.025Z,6.80
2022-12-08T16:08:47.544Z,7.15
2022-12-08T16:12:04.757Z,7.17
2022-12-08T16:15:38.753Z,7.25
2022-12-08T16:17:14.542Z,7.38
2022-12-08T16:19:42.084Z,7.22
2022-12-08T16:22:51.656Z,7.02
2022-12-08T16:25:17.769Z,6.74
2022-12-08T16:28:17.247Z,6.51
2022-12-08T16:30:34.174Z,6.44
2022-12-08T16:33:01.598Z,6.40
2022-12-08T16:35:30.281Z,6.21
2022-12-08T16:37:58.059Z,6.17
2022-12-08T16:40:28.265Z,5.95
2022-12-08T16:42:55.309Z,5.95
2022-12-08T16:45:25.267Z,6.03
2022-12-08T16:47:57.163Z,5.89
2022-12-08T16:50:32.838Z,5.92
2022-12-08T16:53:05.486Z,5.89
2022-12-08T16:55:33.665Z,5.84
2022-12-08T16:58:01.075Z,5.80
2022-12-08T17:00:29.347Z,5.79
2022-12-08T17:02:56.923Z,5.79
2022-12-08T17:05:24.939Z,5.82
2022-12-08T17:07:53.011Z,5.86
2022-12-08T17:10:23.593Z,5.92
2022-12-08T17:12:51.170Z,5.58
2022-12-08T17:15:21.988Z,5.25
2022-12-08T17:17:49.591Z,4.89
2022-12-08T17:20:19.937Z,5.01
2022-12-08T17:22:47.189Z,5.27
2022-12-08T17:25:14.754Z,5.55
2022-12-08T17:27:42.386Z,5.53
2022-12-08T17:30:12.534Z,5.58
2022-12-08T17:32:39.915Z,5.65
2022-12-08T17:35:07.785Z,5.75
2022-12-08T17:37:35.320Z,5.69
2022-12-08T17:40:03.039Z,5.65
2022-12-08T17:42:30.522Z,5.59
2022-12-08T17:44:57.590Z,5.70
2022-12-08T17:47:24.957Z,5.81
2022-12-08T17:49:52.170Z,5.79
2022-12-08T17:52:19.227Z,5.96
2022-12-08T17:54:46.607Z,6.00
2022-12-08T17:57:13.769Z,5.91
2022-12-08T17:59:40.838Z,5.98
2022-12-08T18:02:12.084Z,5.86
2022-12-08T18:04:39.613Z,5.91
2022-12-08T18:07:06.660Z,5.83
2022-12-08T18:09:33.953Z,5.75
2022-12-08T18:12:01.370Z,5.88
2022-12-08T18:14:28.514Z,5.78
2022-12-08T18:16:55.678Z,5.80
2022-12-08T18:19:23.229Z,5.73
2022-12-08T18:21:50.410Z,5.73
2022-12-08T18:24:22.234Z,5.70
2022-12-08T18:26:52.116Z,5.70
2022-12-08T18:29:20.564Z,5.77
2022-12-08T18:31:47.891Z,5.70
2022-12-08T18:34:15.261Z,5.73
2022-12-08T18:36:42.378Z,5.83
2022-12-08T18:39:29.874Z,5.95
2022-12-08T18:41:58.480Z,5.98
2022-12-08T18:44:25.641Z,5.86
2022-12-08T18:46:52.709Z,5.84
2022-12-08T18:49:20.467Z,5.79
2022-12-08T18:51:47.791Z,5.85
2022-12-08T18:54:14.834Z,5.88
2022-12-08T18:56:42.183Z,5.71
2022-12-08T18:59:11.461Z,5.85
2022-12-08T19:01:41.304Z,5.93
2022-12-08T19:04:27.924Z,5.85
2022-12-08T19:06:56.432Z,5.78
2022-12-08T19:09:26.031Z,5.85
2022-12-08T19:11:53.160Z,5.81
2022-12-08T19:14:25.856Z,5.82
2022-12-08T19:16:55.119Z,5.79
2022-12-08T19:19:22.203Z,5.78
2022-12-08T19:21:49.559Z,5.71
2022-12-08T19:24:16.916Z,5.81
2022-12-08T19:26:44.206Z,5.82
2022-12-08T19:29:11.545Z,5.93
2022-12-08T19:31:39.276Z,5.93
2022-12-08T19:34:06.807Z,5.85
2022-12-08T19:36:35.672Z,5.77
2022-12-08T19:39:22.696Z,5.77
2022-12-08T19:42:09.200Z,5.79
2022-12-08T19:44:54.723Z,5.79
2022-12-08T19:47:26.697Z,5.86
2022-12-08T19:49:55.105Z,5.95
2022-12-08T19:52:22.387Z,5.91
2022-12-08T19:54:51.417Z,5.88
2022-12-08T19:57:20.466Z,5.71
2022-12-08T19:59:50.464Z,5.97
2022-12-08T20:02:22.169Z,5.87
2022-12-08T20:04:49.671Z,5.82
2022-12-08T20:07:16.744Z,5.72
2022-12-08T20:09:43.832Z,5.66
2022-12-08T20:12:11.181Z,5.70
2022-12-08T20:14:42.706Z,5.73
2022-12-08T20:17:13.158Z,5.64
2022-12-08T20:19:40.371Z,5.64
2022-12-08T20:22:07.452Z,5.72
2022-12-08T20:24:35.860Z,5.70
2022-12-08T20:27:02.969Z,5.68
2022-12-08T20:29:30.033Z,5.56
2022-12-08T20:31:57.467Z,5.50
2022-12-08T20:34:24.684Z,5.56
2022-12-08T20:36:51.874Z,5.50
2022-12-08T20:39:19.303Z,5.52
2022-12-08T20:41:46.734Z,5.55
2022-12-08T20:44:13.882Z,5.60
2022-12-08T20:46:46.270Z,5.58
2022-12-08T20:49:16.384Z,5.49
2022-12-08T20:51:44.497Z,5.56
2022-12-08T20:54:11.942Z,5.54
2022-12-08T20:56:44.755Z,5.47
2022-12-08T20:59:18.121Z,5.54
2022-12-08T21:01:45.509Z,5.58
2022-12-08T21:04:13.368Z,5.51
2022-12-08T21:06:40.931Z,5.43
2022-12-08T21:09:08.794Z,5.44
2022-12-08T21:11:36.261Z,5.45
2022-12-08T21:14:03.869Z,5.34
2022-12-08T21:16:31.091Z,5.41
2022-12-08T21:18:58.314Z,5.46
2022-12-08T21:21:25.726Z,5.42
2022-12-08T21:23:53.567Z,5.47
2022-12-08T21:26:22.057Z,5.36
2022-12-08T21:28:49.484Z,5.46
2022-12-08T21:31:19.111Z,5.35
2022-12-08T21:33:46.454Z,5.41
2022-12-08T21:36:16.810Z,5.41
2022-12-08T21:38:44.698Z,5.42
2022-12-08T21:41:14.491Z,5.30
2022-12-08T21:43:42.495Z,5.32
2022-12-08T21:46:17.128Z,5.31
2022-12-08T21:48:44.713Z,5.39
2022-12-08T21:51:11.999Z,5.35
2022-12-08T21:53:39.289Z,5.53
2022-12-08T21:56:10.006Z,5.48
2022-12-08T21:58:39.509Z,5.39
2022-12-08T22:01:08.602Z,5.40
2022-12-08T22:03:37.662Z,5.46
2022-12-08T22:06:09.882Z,5.33
2022-12-08T22:08:37.433Z,5.29
2022-12-08T22:11:05.212Z,5.28
2022-12-08T22:13:36.651Z,4.70
2022-12-08T22:16:08.613Z,4.47
2022-12-08T22:18:36.536Z,4.52
2022-12-08T22:21:12.135Z,4.30
2022-12-08T22:23:39.605Z,4.32
2022-12-08T22:26:08.366Z,4.62
2022-12-08T22:28:41.162Z,4.78
2022-12-08T22:31:22.300Z,4.79
2022-12-08T22:33:50.574Z,4.85
2022-12-08T22:36:24.244Z,4.94
2022-12-08T22:38:51.925Z,4.88
2022-12-08T22:41:19.864Z,4.88
2022-12-08T22:43:48.054Z,4.90
2022-12-08T22:46:20.813Z,5.06
2022-12-08T22:48:48.744Z,5.12
2022-12-08T22:51:16.131Z,5.14
2022-12-08T22:53:43.887Z,5.04
2022-12-08T22:56:12.692Z,5.15
2022-12-08T22:58:40.637Z,5.13
2022-12-08T23:01:08.507Z,5.21
2022-12-08T23:03:36.230Z,5.16
2022-12-08T23:06:12.391Z,5.03
2022-12-08T23:08:40.095Z,5.02
2022-12-08T23:11:07.293Z,4.77
2022-12-08T23:13:34.605Z,4.77
2022-12-08T23:16:01.984Z,4.84
2022-12-08T23:18:29.048Z,4.90
2022-12-08T23:20:56.259Z,4.93
2022-12-08T23:23:23.615Z,4.96
2022-12-08T23:25:50.666Z,5.05
2022-12-08T23:28:17.724Z,5.10
2022-12-08T23:30:45.232Z,5.00
2022-12-08T23:33:12.656Z,5.00
2022-12-08T23:35:39.827Z,5.00
2022-12-08T23:38:07.171Z,5.01
2022-12-08T23:40:34.674Z,5.06
2022-12-08T23:43:02.033Z,5.13
2022-12-08T23:45:29.662Z,5.21
2022-12-08T23:47:56.860Z,5.18
2022-12-08T23:50:24.030Z,5.10
2022-12-08T23:52:51.459Z,5.04
2022-12-08T23:55:18.499Z,5.07
2022-12-08T23:57:45.587Z,5.12
